Time;durP1;ratioP1;P1;durP2;ratioP2;P2;SDS_P1;SDS_P2;PMS_P1;PMS_P2;Temp;Humidity;BMP_temperature;BMP_pressure;BME280_temperature;BME280_humidity;BME280_pressure;Samples;Min_cycle;Max_cycle;Signal;HPM_P1;HPM_P2
2021/12/07 00:01:48;;;;;;;12.30;8.50;;;1.90;99.90;;;;;;5077113;28;20028;-77
2021/12/07 00:04:14;;;;;;;14.85;8.90;;;1.80;99.90;;;;;;5077010;28;20031;-78
2021/12/07 00:06:41;;;;;;;12.93;8.73;;;1.80;99.90;;;;;;5095160;28;20036;-77
2021/12/07 00:09:12;;;;;;;12.20;8.20;;;1.80;99.90;;;;;;5076805;28;20036;-77
2021/12/07 00:11:37;;;;;;;10.75;7.53;;;1.80;99.90;;;;;;5077003;28;20451;-77
2021/12/07 00:14:12;;;;;;;12.75;8.95;;;2.00;99.90;;;;;;5076726;28;20115;-77
2021/12/07 00:16:37;;;;;;;;;;;1.90;99.90;;;;;;5077318;28;20028;-77
2021/12/07 00:19:04;;;;;;;10.57;6.72;;;2.00;99.90;;;;;;5094892;28;19986;-77
2021/12/07 00:21:30;;;;;;;11.60;8.18;;;2.10;99.90;;;;;;5076658;28;20181;-77
2021/12/07 00:23:55;;;;;;;13.00;7.78;;;2.10;99.90;;;;;;5094745;28;20052;-78
2021/12/07 00:26:22;;;;;;;12.95;8.00;;;2.10;99.90;;;;;;5095041;28;20028;-77
2021/12/07 00:28:50;;;;;;;11.57;7.60;;;2.00;99.90;;;;;;5076468;28;20030;-77
2021/12/07 00:31:26;;;;;;;13.52;8.57;;;2.10;99.90;;;;;;5076517;28;20031;-77
2021/12/07 00:34:09;;;;;;;11.68;7.80;;;2.10;99.90;;;;;;5076410;28;20024;-77
2021/12/07 00:36:38;;;;;;;12.32;9.18;;;2.00;99.90;;;;;;5076407;28;20027;-78
2021/12/07 00:39:05;;;;;;;12.68;8.65;;;1.90;99.90;;;;;;5076245;28;20044;-77
2021/12/07 00:41:31;;;;;;;12.25;8.30;;;1.90;99.90;;;;;;5076242;28;20039;-77
2021/12/07 00:43:56;;;;;;;13.50;8.50;;;1.80;99.90;;;;;;5076120;28;20028;-77
2021/12/07 00:46:25;;;;;;;13.75;8.80;;;1.80;99.90;;;;;;5094344;28;20027;-76
2021/12/07 00:48:51;;;;;;;12.55;8.35;;;1.80;99.90;;;;;;5075949;28;20411;-76
2021/12/07 00:51:17;;;;;;;13.80;9.35;;;1.70;99.90;;;;;;5094753;28;20017;-77
2021/12/07 00:53:42;;;;;;;11.73;8.70;;;1.70;99.90;;;;;;5075863;28;20020;-77
2021/12/07 00:56:09;;;;;;;12.43;8.50;;;1.70;99.90;;;;;;5075947;28;20020;-77
2021/12/07 00:58:35;;;;;;;13.23;9.20;;;1.70;99.90;;;;;;5075903;28;20502;-77
2021/12/07 01:01:07;;;;;;;12.60;8.65;;;1.70;99.90;;;;;;5075873;28;20028;-76
2021/12/07 01:03:34;;;;;;;13.25;8.60;;;1.50;99.90;;;;;;5075780;28;20483;-77
2021/12/07 01:24:54;;;;;;;13.63;8.35;;;1.60;99.90;;;;;;5093924;28;20039;-77
2021/12/07 01:27:21;;;;;;;10.98;8.00;;;1.70;99.90;;;;;;5075424;28;20033;-77
2021/12/07 01:29:56;;;;;;;10.57;7.20;;;1.70;99.90;;;;;;5075646;28;20115;-77
2021/12/07 01:35:36;;;;;;;12.82;8.50;;;1.60;99.90;;;;;;5093544;28;20024;-77
2021/12/07 01:40:53;;;;;;;11.05;7.43;;;1.70;99.90;;;;;;5093698;28;20032;-77
2021/12/07 01:46:08;;;;;;;10.23;7.45;;;1.80;99.90;;;;;;5093448;28;20035;-77
2021/12/07 01:59:54;;;;;;;5.15;3.88;;;1.60;99.90;;;;;;5093555;28;20039;-77
2021/12/07 02:02:22;;;;;;;6.80;3.95;;;1.70;99.90;;;;;;5075037;28;20032;-77
2021/12/07 02:04:48;;;;;;;5.38;4.13;;;1.70;99.90;;;;;;5092581;28;20387;-77
2021/12/07 02:07:15;;;;;;;5.15;4.05;;;1.80;99.90;;;;;;5093111;28;20024;-77
2021/12/07 02:09:45;;;;;;;4.80;3.40;;;1.80;99.90;;;;;;5074914;28;20036;-77
2021/12/07 02:12:12;;;;;;;5.95;3.90;;;1.90;99.90;;;;;;5075043;28;20071;-77
2021/12/07 02:14:39;;;;;;;3.95;2.97;;;2.00;99.90;;;;;;5093078;28;20023;-76
2021/12/07 02:17:13;;;;;;;2.63;2.20;;;2.00;99.90;;;;;;5074945;28;20039;-77
2021/12/07 02:19:39;;;;;;;5.38;3.22;;;1.90;99.90;;;;;;5074954;28;20028;-77
2021/12/07 02:22:06;;;;;;;2.92;2.55;;;1.80;99.90;;;;;;5074818;28;20036;-77
2021/12/07 02:24:33;;;;;;;4.20;2.53;;;1.90;99.90;;;;;;5074852;28;20399;-77
2021/12/07 02:27:00;;;;;;;2.08;1.70;;;1.90;99.90;;;;;;5093062;28;20032;-77
2021/12/07 02:29:26;;;;;;;6.75;3.67;;;1.90;99.90;;;;;;5074648;28;20069;-77
2021/12/07 02:31:53;;;;;;;3.65;2.40;;;2.00;99.90;;;;;;5093210;28;20017;-77
2021/12/07 02:34:21;;;;;;;2.45;2.25;;;2.00;99.90;;;;;;5074730;28;20020;-77
2021/12/07 02:36:47;;;;;;;3.53;2.90;;;2.00;99.90;;;;;;5074675;28;20026;-77
2021/12/07 02:39:13;;;;;;;3.38;2.05;;;2.00;99.90;;;;;;5074531;28;20052;-77
2021/12/07 02:41:40;;;;;;;2.20;1.83;;;2.10;99.90;;;;;;5058142;28;20399;-77
2021/12/07 02:44:07;;;;;;;4.18;2.92;;;2.10;99.90;;;;;;5074633;28;20051;-78
2021/12/07 02:46:35;;;;;;;3.42;2.22;;;2.20;99.90;;;;;;5074633;28;20051;-78
2021/12/07 02:49:01;;;;;;;2.70;2.33;;;2.20;99.90;;;;;;5074377;28;20048;-77
2021/12/07 02:51:26;;;;;;;2.20;1.60;;;2.30;99.90;;;;;;5074582;28;20056;-77
2021/12/07 02:53:54;;;;;;;3.90;1.27;;;2.40;99.90;;;;;;5074507;28;20023;-77
2021/12/07 02:56:20;;;;;;;2.38;1.83;;;2.30;99.90;;;;;;5092688;28;20016;-77
2021/12/07 02:58:46;;;;;;;1.63;1.52;;;2.30;99.90;;;;;;5092630;28;20491;-77
2021/12/07 03:01:19;;;;;;;1.98;1.60;;;2.40;99.90;;;;;;5074475;28;20325;-77
2021/12/07 03:06:34;;;;;;;2.63;1.70;;;2.40;99.90;;;;;;5092651;28;20383;-77
2021/12/07 03:28:06;;;;;;;2.97;1.48;;;2.60;99.90;;;;;;5096489;28;20117;-77
2021/12/07 03:30:32;;;;;;;3.55;1.00;;;2.70;99.90;;;;;;5077596;28;20036;-77
2021/12/07 03:32:59;;;;;;;1.92;1.02;;;2.70;99.90;;;;;;5077625;28;20031;-77
2021/12/07 03:35:26;;;;;;;2.00;1.27;;;2.70;99.90;;;;;;5077537;28;20115;-77
2021/12/07 03:37:53;;;;;;;2.33;1.00;;;2.80;99.90;;;;;;5095731;28;20032;-77
2021/12/07 03:40:19;;;;;;;2.47;1.52;;;2.80;99.90;;;;;;5077443;28;20035;-77
2021/12/07 03:42:45;;;;;;;1.42;0.82;;;2.80;99.90;;;;;;5077383;28;20020;-77
2021/12/07 03:45:11;;;;;;;1.63;1.30;;;2.80;99.90;;;;;;5077484;28;20118;-77
2021/12/07 03:47:38;;;;;;;2.55;1.08;;;2.80;99.90;;;;;;5095458;28;20107;-78
2021/12/07 03:50:05;;;;;;;1.20;1.10;;;2.80;99.90;;;;;;5077260;28;20031;-77
2021/12/07 03:52:31;;;;;;;1.83;0.95;;;2.80;99.90;;;;;;5077259;28;20509;-77
2021/12/07 03:54:57;;;;;;;2.85;1.02;;;2.70;99.90;;;;;;5077290;28;20049;-77
2021/12/07 03:57:23;;;;;;;3.80;1.17;;;2.80;99.90;;;;;;5077150;28;20107;-78
2021/12/07 03:59:48;;;;;;;4.05;1.10;;;2.80;99.90;;;;;;5077167;28;20028;-77
2021/12/07 04:02:14;;;;;;;2.53;1.10;;;2.80;99.90;;;;;;5077036;28;20023;-78
2021/12/07 04:04:40;;;;;;;2.72;1.10;;;2.80;99.90;;;;;;5095162;28;20028;-77
2021/12/07 04:07:06;;;;;;;1.92;1.10;;;2.80;99.90;;;;;;5077021;28;20047;-77
2021/12/07 04:09:32;;;;;;;4.25;1.13;;;2.80;99.90;;;;;;5094989;28;20480;-78
2021/12/07 04:11:59;;;;;;;3.80;1.10;;;2.80;99.90;;;;;;5076916;28;20020;-77
2021/12/07 04:14:25;;;;;;;2.45;1.10;;;2.80;99.90;;;;;;5094954;28;20031;-77
2021/12/07 04:16:51;;;;;;;4.60;1.10;;;2.80;99.90;;;;;;5076826;28;20115;-77
2021/12/07 04:19:16;;;;;;;3.25;1.15;;;2.80;99.90;;;;;;5095513;28;20107;-78
2021/12/07 04:21:42;;;;;;;4.22;1.23;;;2.80;99.90;;;;;;5094875;28;20024;-77
2021/12/07 04:24:08;;;;;;;3.65;1.20;;;2.80;99.90;;;;;;5076603;28;20028;-77
2021/12/07 04:26:34;;;;;;;4.45;1.35;;;2.80;99.90;;;;;;5094747;28;20028;-77
2021/12/07 04:29:00;;;;;;;5.18;1.25;;;2.80;99.90;;;;;;5075988;28;20031;-78
2021/12/07 04:31:26;;;;;;;4.85;1.20;;;2.70;99.90;;;;;;5076826;28;20024;-77
2021/12/07 04:33:52;;;;;;;1.65;1.00;;;2.70;99.90;;;;;;5076428;28;20069;-77
2021/12/07 04:36:17;;;;;;;3.17;1.25;;;2.70;99.90;;;;;;5094579;28;20503;-77
2021/12/07 04:38:43;;;;;;;4.05;1.40;;;2.70;99.90;;;;;;5076160;28;20415;-77
2021/12/07 04:41:10;;;;;;;4.68;1.60;;;2.80;99.90;;;;;;5094474;28;20024;-77
2021/12/07 04:43:38;;;;;;;6.30;1.33;;;2.80;99.90;;;;;;5076299;28;20035;-77
2021/12/07 04:46:17;;;;;;;5.45;1.42;;;2.70;99.90;;;;;;5076195;28;20418;-77
2021/12/07 04:59:37;;;;;;;5.50;1.75;;;2.70;99.90;;;;;;5094774;28;20034;-77
2021/12/07 05:02:03;;;;;;;5.95;1.35;;;2.80;99.90;;;;;;5094108;28;20020;-78
2021/12/07 05:04:32;;;;;;;5.53;1.63;;;2.70;99.90;;;;;;5075874;28;20028;-77
2021/12/07 05:07:09;;;;;;;6.70;1.38;;;2.70;99.90;;;;;;5075782;28;20028;-77
2021/12/07 05:14:42;;;;;;;10.13;1.70;;;2.60;99.90;;;;;;5094480;28;20050;-77
2021/12/07 05:39:28;;;;;;;3.13;1.35;;;2.70;99.90;;;;;;5092533;28;20525;-77
2021/12/07 05:41:55;;;;;;;6.22;1.55;;;2.70;99.90;;;;;;5075242;28;20035;-77
2021/12/07 05:44:21;;;;;;;6.93;1.52;;;2.70;99.90;;;;;;5075207;28;20028;-77
2021/12/07 05:46:47;;;;;;;4.43;1.50;;;2.80;99.90;;;;;;5093412;28;20467;-77
2021/12/07 05:49:12;;;;;;;4.65;1.70;;;2.80;99.90;;;;;;5075042;28;20039;-77
2021/12/07 05:51:38;;;;;;;4.82;1.80;;;2.80;99.90;;;;;;5075126;28;20024;-77
2021/12/07 05:54:04;;;;;;;3.05;1.45;;;2.80;99.90;;;;;;5075157;28;20020;-77
2021/12/07 05:56:30;;;;;;;3.85;1.10;;;2.70;99.90;;;;;;5093518;28;20032;-77
2021/12/07 05:58:56;;;;;;;4.45;1.67;;;2.80;99.90;;;;;;5058379;28;20032;-77
2021/12/07 06:01:22;;;;;;;2.83;1.52;;;2.80;99.90;;;;;;5074989;28;20085;-77
2021/12/07 06:03:47;;;;;;;6.55;1.60;;;2.80;99.90;;;;;;5093204;28;20032;-77
2021/12/07 06:06:13;;;;;;;3.45;1.60;;;2.80;99.90;;;;;;5075040;28;20024;-78
2021/12/07 06:08:39;;;;;;;4.97;1.33;;;2.80;99.90;;;;;;5074973;28;20056;-77
2021/12/07 06:11:05;;;;;;;4.20;1.60;;;2.90;99.90;;;;;;5093373;28;20483;-77
2021/12/07 06:13:30;;;;;;;5.15;1.20;;;2.80;99.90;;;;;;5074969;28;20033;-77
2021/12/07 06:16:03;;;;;;;2.90;1.30;;;2.80;99.90;;;;;;5074947;28;20081;-77
2021/12/07 06:18:28;;;;;;;4.95;1.40;;;2.90;99.90;;;;;;5074948;28;20024;-77
2021/12/07 06:20:54;;;;;;;8.57;1.40;;;2.90;99.90;;;;;;5093220;28;20074;-77
2021/12/07 06:23:20;;;;;;;3.10;1.45;;;2.80;99.90;;;;;;5093029;28;20514;-77
2021/12/07 06:25:47;;;;;;;7.68;1.85;;;2.80;99.90;;;;;;5074826;28;20048;-77
2021/12/07 06:28:14;;;;;;;5.10;1.92;;;2.80;99.90;;;;;;5075090;28;20110;-77
2021/12/07 06:30:44;;;;;;;7.80;1.52;;;2.80;99.90;;;;;;5092840;28;20509;-77
2021/12/07 06:33:11;;;;;;;7.10;1.80;;;2.90;99.90;;;;;;5074706;28;20068;-77
2021/12/07 06:35:37;;;;;;;7.68;2.30;;;2.80;99.90;;;;;;5092891;28;20431;-77
2021/12/07 06:38:03;;;;;;;5.93;1.60;;;2.90;99.90;;;;;;5092647;28;20044;-77
2021/12/07 06:40:28;;;;;;;6.45;1.40;;;3.00;99.90;;;;;;5074627;28;20031;-77
2021/12/07 06:42:59;;;;;;;4.45;1.50;;;3.00;99.90;;;;;;5074644;28;20070;-77
2021/12/07 06:45:26;;;;;;;3.85;1.40;;;3.00;99.90;;;;;;5074678;28;20177;-77
2021/12/07 06:47:53;;;;;;;7.53;1.40;;;3.00;99.90;;;;;;5074556;28;20391;-78
2021/12/07 06:50:20;;;;;;;11.75;1.70;;;3.00;99.90;;;;;;5074686;28;20029;-77
2021/12/07 06:52:45;;;;;;;2.95;1.30;;;3.00;99.90;;;;;;5096619;28;20472;-77
2021/12/07 06:55:12;;;;;;;4.05;1.50;;;3.10;99.90;;;;;;5078350;28;20027;-77
2021/12/07 06:57:38;;;;;;;5.72;1.75;;;3.00;99.90;;;;;;5078183;28;20373;-77
2021/12/07 07:00:09;;;;;;;7.22;1.45;;;3.00;99.90;;;;;;5078241;28;20407;-78
2021/12/07 07:02:34;;;;;;;6.03;1.63;;;3.00;99.90;;;;;;5096596;28;20028;-78
2021/12/07 07:05:01;;;;;;;5.28;1.42;;;3.00;99.90;;;;;;5078065;28;20428;-77
2021/12/07 07:07:27;;;;;;;5.45;1.50;;;2.90;99.90;;;;;;5078396;28;20024;-77
2021/12/07 07:09:53;;;;;;;6.80;1.80;;;3.00;99.90;;;;;;5078022;28;20035;-77
2021/12/07 07:12:19;;;;;;;6.50;1.58;;;2.90;99.90;;;;;;5096199;28;20023;-77
2021/12/07 07:14:46;;;;;;;3.72;1.60;;;2.90;99.90;;;;;;5077915;28;20480;-77
2021/12/07 07:17:13;;;;;;;4.88;1.38;;;2.90;99.90;;;;;;5077923;28;20589;-77
2021/12/07 07:19:39;;;;;;;13.85;1.80;;;2.90;99.90;;;;;;5096201;28;20031;-77
2021/12/07 07:22:05;;;;;;;8.02;1.58;;;2.80;99.90;;;;;;5077814;28;20529;-77
2021/12/07 07:24:32;;;;;;;7.97;1.88;;;2.80;99.90;;;;;;5095932;28;20020;-77
2021/12/07 07:26:59;;;;;;;7.97;2.08;;;2.80;99.90;;;;;;5077854;28;20417;-77
2021/12/07 07:29:25;;;;;;;13.20;5.45;;;2.70;99.90;;;;;;5095808;28;20020;-77
2021/12/07 07:31:51;;;;;;;12.35;4.57;;;2.70;99.90;;;;;;5077801;28;20116;-77
2021/12/07 07:34:17;;;;;;;8.73;4.20;;;2.70;99.90;;;;;;5095857;28;20056;-77
2021/12/07 07:36:43;;;;;;;10.68;4.28;;;2.60;99.90;;;;;;5095617;28;20028;-77
2021/12/07 07:39:09;;;;;;;11.75;4.78;;;2.60;99.90;;;;;;5095678;28;20048;-77
2021/12/07 07:41:35;;;;;;;7.03;2.92;;;2.60;99.90;;;;;;5077436;28;20498;-77
2021/12/07 07:44:01;;;;;;;8.05;2.95;;;2.70;99.90;;;;;;5077460;28;20020;-78
2021/12/07 07:46:27;;;;;;;11.85;3.40;;;2.80;99.90;;;;;;5077378;28;20070;-77
2021/12/07 07:48:53;;;;;;;6.22;2.33;;;2.90;99.90;;;;;;5077157;28;20052;-77
2021/12/07 07:51:19;;;;;;;7.68;2.30;;;3.00;99.90;;;;;;5077341;28;20027;-77
2021/12/07 07:53:45;;;;;;;5.70;2.25;;;3.00;99.90;;;;;;5077259;28;20024;-77
2021/12/07 07:56:12;;;;;;;9.25;2.92;;;2.90;99.90;;;;;;5095328;28;20030;-77
2021/12/07 07:58:38;;;;;;;8.55;2.40;;;2.80;99.90;;;;;;5077152;28;20070;-77
2021/12/07 08:01:04;;;;;;;10.07;2.72;;;2.70;99.90;;;;;;5077200;28;20020;-77
2021/12/07 08:03:30;;;;;;;8.45;2.67;;;2.70;99.90;;;;;;5076207;28;20525;-77
2021/12/07 08:05:56;;;;;;;10.15;3.97;;;2.80;99.90;;;;;;5076970;28;20020;-77
2021/12/07 08:08:22;;;;;;;5.95;2.58;;;2.80;99.90;;;;;;5077212;28;20080;-77
2021/12/07 08:10:48;;;;;;;13.50;5.75;;;2.80;99.90;;;;;;5076922;28;20028;-77
2021/12/07 08:13:14;;;;;;;10.35;3.75;;;2.90;99.90;;;;;;5076891;28;20053;-77
2021/12/07 08:15:43;;;;;;;11.57;3.20;;;2.80;99.90;;;;;;5095240;28;20030;-77
2021/12/07 08:18:11;;;;;;;6.28;2.60;;;2.80;99.90;;;;;;5094932;28;20016;-78
2021/12/07 08:20:37;;;;;;;9.13;3.60;;;2.80;99.90;;;;;;5076633;28;20127;-77
2021/12/07 08:23:05;;;;;;;10.75;3.30;;;2.80;99.90;;;;;;5076641;28;20111;-77
2021/12/07 08:25:38;;;;;;;11.90;2.85;;;2.90;99.90;;;;;;5076564;28;20028;-77
2021/12/07 08:28:07;;;;;;;6.57;2.30;;;3.20;99.90;;;;;;5076684;28;20031;-77
2021/12/07 08:30:34;;;;;;;5.35;2.00;;;3.50;99.90;;;;;;5076401;28;20438;-78
2021/12/07 08:32:59;;;;;;;6.20;2.20;;;3.90;99.90;;;;;;5076398;28;20020;-77
2021/12/07 08:35:25;;;;;;;4.75;1.90;;;3.90;99.90;;;;;;5076393;28;20073;-77
2021/12/07 08:37:51;;;;;;;7.00;1.90;;;3.90;99.90;;;;;;5076159;28;20032;-77
2021/12/07 08:40:20;;;;;;;9.95;1.67;;;4.10;99.90;;;;;;5076283;28;20103;-77
2021/12/07 08:42:47;;;;;;;9.15;1.95;;;4.30;99.90;;;;;;5076228;28;20050;-77
2021/12/07 08:45:13;;;;;;;8.80;2.40;;;4.50;99.90;;;;;;5094649;28;20024;-77
2021/12/07 08:47:39;;;;;;;12.57;2.55;;;4.60;99.90;;;;;;5094267;28;20032;-77
2021/12/07 08:50:10;;;;;;;10.55;2.53;;;4.80;99.90;;;;;;5094198;28;20034;-77
2021/12/07 08:52:36;;;;;;;5.45;2.03;;;4.90;99.90;;;;;;5076049;28;20483;-77
2021/12/07 09:00:14;;;;;;;9.25;2.08;;;5.20;99.90;;;;;;5094419;28;20544;-77
2021/12/07 09:02:40;;;;;;;6.00;1.88;;;5.30;99.90;;;;;;5075903;28;20055;-78
2021/12/07 09:05:06;;;;;;;7.20;2.00;;;5.40;99.90;;;;;;5076207;28;20027;-78
2021/12/07 09:07:32;;;;;;;7.97;1.98;;;5.70;99.90;;;;;;5075854;28;20479;-77
2021/12/07 09:09:57;;;;;;;7.30;2.22;;;5.90;99.90;;;;;;5093865;28;20103;-78
2021/12/07 09:12:23;;;;;;;7.28;1.98;;;5.90;99.90;;;;;;5075730;28;20024;-77
2021/12/07 09:14:52;;;;;;;5.78;1.45;;;6.10;99.90;;;;;;5075563;28;20051;-77
2021/12/07 09:17:18;;;;;;;9.73;1.85;;;6.10;99.90;;;;;;5075648;28;20052;-77
2021/12/07 09:19:44;;;;;;;7.93;1.60;;;6.50;99.90;;;;;;5075630;28;20028;-77
2021/12/07 09:22:10;;;;;;;7.43;1.98;;;6.70;99.90;;;;;;5075542;28;20026;-78
2021/12/07 09:24:35;;;;;;;10.50;2.03;;;6.20;99.90;;;;;;5075519;28;20024;-78
2021/12/07 09:27:02;;;;;;;8.40;1.98;;;5.90;99.90;;;;;;5094142;28;20028;-77
2021/12/07 09:29:28;;;;;;;11.40;2.53;;;5.60;99.90;;;;;;5075366;28;20487;-78
2021/12/07 09:31:55;;;;;;;8.65;1.98;;;5.70;99.90;;;;;;5075390;28;20020;-78
2021/12/07 09:34:21;;;;;;;7.97;1.80;;;5.80;99.90;;;;;;5075340;28;20043;-77
2021/12/07 09:36:47;;;;;;;5.22;1.77;;;5.90;99.90;;;;;;5093516;28;20024;-77
2021/12/07 09:39:17;;;;;;;8.48;1.80;;;6.20;99.90;;;;;;5075123;28;20044;-77
2021/12/07 09:41:43;;;;;;;13.18;3.47;;;6.40;99.90;;;;;;5093402;28;20099;-77
2021/12/07 09:44:10;;;;;;;6.93;1.95;;;6.70;99.90;;;;;;5093341;28;20024;-77
2021/12/07 09:46:37;;;;;;;8.88;1.83;;;6.50;99.90;;;;;;5075194;28;20399;-78
2021/12/07 09:49:04;;;;;;;5.88;1.65;;;6.30;99.90;;;;;;5075053;28;20490;-78
2021/12/07 09:51:31;;;;;;;5.90;1.30;;;6.00;99.90;;;;;;5075155;28;20024;-77
2021/12/07 09:53:58;;;;;;;6.53;1.65;;;5.70;99.90;;;;;;5075187;28;20031;-78
2021/12/07 09:56:26;;;;;;;7.82;1.88;;;5.50;99.90;;;;;;5075135;28;20115;-78
2021/12/07 09:58:54;;;;;;;8.98;1.70;;;5.40;99.90;;;;;;5058888;28;20062;-78
2021/12/07 10:01:22;;;;;;;7.95;2.08;;;5.30;99.90;;;;;;5075190;28;20093;-78
2021/12/07 10:03:49;;;;;;;10.25;1.85;;;5.50;99.90;;;;;;5074970;28;20024;-78
2021/12/07 10:06:15;;;;;;;9.00;2.10;;;5.30;99.90;;;;;;5093063;28;20024;-78
2021/12/07 10:08:42;;;;;;;8.43;1.90;;;5.20;99.90;;;;;;5058117;28;20040;-78
2021/12/07 10:11:09;;;;;;;11.35;1.90;;;5.10;99.90;;;;;;5093284;28;20020;-79
2021/12/07 10:13:37;;;;;;;5.15;1.95;;;5.40;99.90;;;;;;5074874;28;20021;-78
2021/12/07 10:16:05;;;;;;;7.22;1.60;;;5.50;99.90;;;;;;5093049;28;20031;-78
2021/12/07 10:18:37;;;;;;;4.03;1.48;;;5.70;99.90;;;;;;5074805;28;20031;-78
2021/12/07 10:21:23;;;;;;;10.90;1.70;;;6.00;99.90;;;;;;5074880;28;20108;-77
2021/12/07 10:23:58;;;;;;;6.72;1.55;;;6.50;99.90;;;;;;5092966;28;20016;-77
2021/12/07 10:26:28;;;;;;;6.53;1.80;;;6.90;99.90;;;;;;5076774;28;20364;-77
2021/12/07 10:29:19;;;;;;;10.40;2.00;;;7.30;99.90;;;;;;5078781;28;20395;-78
2021/12/07 10:31:51;;;;;;;6.32;1.50;;;7.20;99.90;;;;;;5078750;28;20028;-78
2021/12/07 10:34:21;;;;;;;6.82;1.63;;;7.60;99.90;;;;;;5096904;28;20023;-77
2021/12/07 10:36:49;;;;;;;9.48;1.70;;;8.10;99.90;;;;;;5096922;28;20020;-78
2021/12/07 10:39:23;;;;;;;11.60;1.52;;;8.00;99.90;;;;;;5075165;28;20179;-77
2021/12/07 10:41:50;;;;;;;8.70;1.48;;;7.90;99.90;;;;;;5076501;28;20025;-77
2021/12/07 10:44:22;;;;;;;4.00;1.30;;;8.00;99.90;;;;;;5092070;28;20025;-77
2021/12/07 10:46:56;;;;;;;9.27;2.17;;;8.00;99.90;;;;;;5092088;28;20021;-77
2021/12/07 10:49:28;;;;;;;7.77;1.57;;;8.30;99.90;;;;;;5091895;28;20473;-78
2021/12/07 10:52:09;;;;;;;5.55;1.80;;;8.60;99.90;;;;;;5076239;28;20028;-77
2021/12/07 10:54:57;;;;;;;5.28;1.70;;;8.50;99.90;;;;;;5091851;28;20028;-77
2021/12/07 10:57:28;;;;;;;7.22;1.70;;;8.50;99.90;;;;;;5076155;28;20099;-77
2021/12/07 11:00:03;;;;;;;7.47;1.70;;;8.50;99.90;;;;;;5076241;28;20025;-77
2021/12/07 11:02:33;;;;;;;5.95;1.63;;;8.50;99.90;;;;;;5076536;28;20529;-78
2021/12/07 11:05:01;;;;;;;9.55;1.27;;;8.40;99.90;;;;;;5076213;28;20116;-78
2021/12/07 11:07:29;;;;;;;6.45;1.33;;;8.50;99.90;;;;;;5075579;28;20032;-79
2021/12/07 11:10:10;;;;;;;8.50;1.73;;;8.80;99.90;;;;;;5076691;28;20086;-78
2021/12/07 11:12:49;;;;;;;3.85;1.75;;;9.20;99.90;;;;;;5076176;28;20074;-78
2021/12/07 11:15:23;;;;;;;5.53;1.33;;;8.70;99.90;;;;;;5076282;28;20464;-79
2021/12/07 11:17:51;;;;;;;10.20;1.40;;;8.70;99.90;;;;;;5091666;28;20476;-78
2021/12/07 11:20:16;;;;;;;6.47;1.67;;;8.80;99.90;;;;;;5091608;28;20075;-78
2021/12/07 11:22:48;;;;;;;6.38;1.85;;;8.30;99.90;;;;;;5091587;28;20348;-78
2021/12/07 11:25:41;;;;;;;11.20;1.70;;;7.30;99.90;;;;;;5091553;28;20027;-78
2021/12/07 11:31:22;;;;;;;8.70;1.38;;;6.80;99.90;;;;;;5075809;28;20097;-78
2021/12/07 11:33:51;;;;;;;5.45;1.67;;;6.30;99.90;;;;;;5091479;28;20103;-77
2021/12/07 11:36:27;;;;;;;8.15;1.67;;;5.80;99.90;;;;;;5091222;28;20024;-78
2021/12/07 11:38:55;;;;;;;8.27;2.00;;;5.50;99.90;;;;;;5090038;28;20058;-78
2021/12/07 11:41:31;;;;;;;13.75;1.80;;;5.30;99.90;;;;;;5091187;28;20029;-78
2021/12/07 11:44:07;;;;;;;7.03;1.65;;;5.20;99.90;;;;;;5091291;28;20092;-78
2021/12/07 11:46:37;;;;;;;8.18;1.60;;;5.10;99.90;;;;;;5091123;28;20024;-78
2021/12/07 11:49:11;;;;;;;5.95;1.73;;;5.40;99.90;;;;;;5090840;28;20020;-78
2021/12/07 11:51:39;;;;;;;11.52;2.10;;;6.60;99.90;;;;;;5090966;28;20085;-78
2021/12/07 11:54:05;;;;;;;8.10;2.15;;;7.30;99.90;;;;;;5075230;28;20032;-79
2021/12/07 11:56:32;;;;;;;13.48;2.05;;;8.40;99.90;;;;;;5075303;28;20369;-78
2021/12/07 11:58:58;;;;;;;5.45;1.45;;;8.40;99.90;;;;;;5075523;28;20063;-78
2021/12/07 12:01:24;;;;;;;8.32;2.45;;;8.90;99.90;;;;;;5090770;28;20036;-79
2021/12/07 12:03:49;;;;;;;7.30;2.05;;;10.00;99.90;;;;;;5090769;28;20056;-78
2021/12/07 12:06:15;;;;;;;7.28;1.30;;;10.70;99.90;;;;;;5075384;28;20024;-79
2021/12/07 12:08:42;;;;;;;5.68;1.60;;;11.20;99.90;;;;;;5090601;28;20033;-79
2021/12/07 12:11:25;;;;;;;6.25;1.05;;;12.10;99.90;;;;;;5090598;28;20025;-80
2021/12/07 12:14:19;;;;;;;10.02;1.83;;;12.40;99.90;;;;;;5074971;28;20103;-78
2021/12/07 12:17:08;;;;;;;7.18;1.20;;;12.50;99.90;;;;;;5063910;28;20032;-78
2021/12/07 12:20:10;;;;;;;3.95;1.10;;;11.30;99.90;;;;;;5090421;28;20028;-78
2021/12/07 12:22:45;;;;;;;4.65;1.20;;;11.10;99.90;;;;;;5074741;28;20016;-79
2021/12/07 12:25:17;;;;;;;6.57;1.77;;;11.00;99.90;;;;;;5074700;28;20031;-78
2021/12/07 12:27:47;;;;;;;10.70;1.73;;;11.30;99.90;;;;;;5090207;28;20020;-80
2021/12/07 12:30:18;;;;;;;6.82;1.45;;;11.40;99.90;;;;;;5074433;28;20029;-81
2021/12/07 12:32:47;;;;;;;5.10;1.25;;;11.50;99.90;;;;;;5090035;28;20033;-80
2021/12/07 12:35:14;;;;;;;6.82;1.30;;;10.60;99.90;;;;;;5090014;28;20400;-81
2021/12/07 12:37:48;;;;;;;6.97;1.35;;;10.40;99.90;;;;;;5076655;28;20016;-80
2021/12/07 12:40:28;;;;;;;2.47;0.75;;;11.20;99.90;;;;;;5076394;28;20056;-81
2021/12/07 12:42:57;;;;;;;5.65;1.48;;;10.80;99.90;;;;;;5076423;28;20028;-81
2021/12/07 12:45:35;;;;;;;5.57;1.23;;;9.80;99.90;;;;;;5094505;28;20023;-80
2021/12/07 12:48:10;;;;;;;5.40;1.20;;;9.30;99.90;;;;;;5076133;28;20392;-80
2021/12/07 12:50:42;;;;;;;5.25;1.58;;;8.90;99.90;;;;;;5076235;28;20487;-80
2021/12/07 12:53:18;;;;;;;7.20;1.40;;;8.40;99.90;;;;;;5076233;28;20023;-80
2021/12/07 12:55:53;;;;;;;8.30;1.38;;;7.70;99.90;;;;;;5076093;28;20016;-81
2021/12/07 12:58:20;;;;;;;9.23;1.60;;;7.20;99.90;;;;;;5094298;28;20379;-81
2021/12/07 13:01:13;;;;;;;5.82;1.50;;;7.00;99.90;;;;;;5094217;28;20103;-79
2021/12/07 13:03:45;;;;;;;5.72;1.38;;;7.10;99.90;;;;;;5094229;28;20024;-79
2021/12/07 13:06:15;;;;;;;7.03;1.30;;;7.30;99.90;;;;;;5094114;28;20088;-79
2021/12/07 13:08:57;;;;;;;4.50;1.20;;;8.60;99.90;;;;;;5094272;28;20506;-80
2021/12/07 13:11:40;;;;;;;4.45;1.00;;;9.80;99.90;;;;;;5094003;28;20515;-80
2021/12/07 13:14:26;;;;;;;4.60;1.10;;;10.30;99.90;;;;;;5094192;28;20026;-80
2021/12/07 13:17:15;;;;;;;8.82;1.17;;;9.40;99.90;;;;;;5058773;28;20082;-79
2021/12/07 13:20:17;;;;;;;5.13;1.33;;;8.70;99.90;;;;;;5094163;28;20051;-79
2021/12/07 13:23:04;;;;;;;4.85;1.48;;;10.00;99.90;;;;;;5075679;28;20024;-79
2021/12/07 13:25:55;;;;;;;6.35;1.40;;;11.30;99.90;;;;;;5075672;28;20499;-79
2021/12/07 13:28:24;;;;;;;6.85;1.48;;;12.80;99.90;;;;;;5075256;28;20081;-79
2021/12/07 13:31:09;;;;;;;7.03;1.50;;;11.70;99.90;;;;;;5075434;28;20020;-79
2021/12/07 13:33:41;;;;;;;11.63;1.83;;;10.90;99.90;;;;;;5093687;28;20024;-79
2021/12/07 13:36:25;;;;;;;5.25;1.20;;;11.60;99.90;;;;;;5093930;28;20020;-79
2021/12/07 13:38:51;;;;;;;7.03;1.30;;;10.80;99.90;;;;;;5075168;28;20040;-80
2021/12/07 13:41:18;;;;;;;7.13;1.20;;;11.00;99.90;;;;;;5075477;28;20400;-80
2021/12/07 13:43:50;;;;;;;3.85;1.27;;;11.00;99.90;;;;;;5093577;28;20028;-79
2021/12/07 13:46:18;;;;;;;7.07;1.60;;;10.80;99.90;;;;;;5093529;28;20464;-80
2021/12/07 13:48:46;;;;;;;4.18;1.30;;;9.90;99.90;;;;;;5093361;28;20387;-80
2021/12/07 13:51:14;;;;;;;7.22;1.20;;;9.50;99.90;;;;;;5093372;28;20031;-81
2021/12/07 13:53:42;;;;;;;8.80;1.58;;;8.50;99.90;;;;;;5075150;28;20031;-80
2021/12/07 13:56:09;;;;;;;8.15;1.40;;;7.40;99.90;;;;;;5075258;28;20042;-81
2021/12/07 13:58:56;;;;;;;7.68;1.75;;;7.10;99.90;;;;;;5075225;28;20024;-81
2021/12/07 14:01:25;;;;;;;7.32;1.35;;;6.80;99.90;;;;;;5092515;28;20093;-80
2021/12/07 14:03:51;;;;;;;10.38;2.00;;;6.10;99.90;;;;;;5093731;28;20574;-80
2021/12/07 14:06:17;;;;;;;5.32;1.42;;;6.00;99.90;;;;;;5075131;28;20020;-80
2021/12/07 14:08:43;;;;;;;5.93;1.60;;;5.90;99.90;;;;;;5075015;28;20483;-80
2021/12/07 14:11:13;;;;;;;8.60;1.65;;;5.70;99.90;;;;;;5093210;28;20021;-81
2021/12/07 14:13:44;;;;;;;8.07;1.55;;;5.50;99.90;;;;;;5075055;28;20043;-80
2021/12/07 14:16:12;;;;;;;5.68;1.42;;;5.40;99.90;;;;;;5075001;28;20017;-81
2021/12/07 14:18:41;;;;;;;8.82;1.60;;;5.40;99.90;;;;;;5093389;28;20020;-81
2021/12/07 14:21:07;;;;;;;4.03;1.30;;;5.40;99.90;;;;;;5074989;28;20024;-81
2021/12/07 14:23:43;;;;;;;6.25;1.40;;;5.30;99.90;;;;;;5074961;28;20047;-81
2021/12/07 14:26:14;;;;;;;6.68;1.17;;;5.30;99.90;;;;;;5075189;28;20036;-80
2021/12/07 14:28:39;;;;;;;6.85;1.60;;;5.10;99.90;;;;;;5092992;28;20016;-80
2021/12/07 14:31:17;;;;;;;3.75;1.27;;;5.10;99.90;;;;;;5093021;28;20107;-80
2021/12/07 14:33:48;;;;;;;4.78;1.20;;;5.20;99.90;;;;;;5074899;28;20024;-80
2021/12/07 14:36:17;;;;;;;8.18;1.60;;;5.20;99.90;;;;;;5074823;28;20052;-80
2021/12/07 14:38:45;;;;;;;8.10;1.23;;;5.20;99.90;;;;;;5071260;28;20045;-81
2021/12/07 14:41:14;;;;;;;7.57;1.30;;;5.10;99.90;;;;;;5088247;28;20111;-81
2021/12/07 14:43:41;;;;;;;5.55;1.73;;;5.00;99.90;;;;;;5088232;28;20111;-81
2021/12/07 14:46:12;;;;;;;7.28;1.75;;;4.90;99.90;;;;;;5088230;28;20031;-81
2021/12/07 14:48:40;;;;;;;8.50;1.40;;;4.90;99.90;;;;;;5072765;28;20021;-81
2021/12/07 14:51:10;;;;;;;10.65;1.67;;;4.80;99.90;;;;;;5072634;28;20024;-81
2021/12/07 14:53:39;;;;;;;4.18;1.15;;;4.80;99.90;;;;;;5072667;28;20044;-81